createdAt,value
2022-10-26T00:01:47.695Z,5.10
2022-10-26T00:06:53.712Z,4.80
2022-10-26T00:12:00.853Z,5.72
2022-10-26T00:17:06.706Z,5.78
2022-10-26T00:22:13.668Z,5.07
2022-10-26T00:27:21.007Z,4.88
2022-10-26T00:32:27.077Z,4.55
2022-10-26T00:37:32.925Z,5.00
2022-10-26T00:42:40.369Z,5.57
2022-10-26T00:47:50.485Z,4.35
2022-10-26T00:52:59.661Z,4.60
2022-10-26T00:58:10.751Z,5.15
2022-10-26T01:03:17.297Z,4.85
2022-10-26T01:08:24.139Z,5.40
2022-10-26T01:13:36.139Z,4.30
2022-10-26T01:18:49.244Z,4.72
2022-10-26T01:24:25.002Z,5.13
2022-10-26T01:30:19.891Z,5.85
2022-10-26T01:35:33.331Z,5.57
2022-10-26T01:40:47.250Z,5.75
2022-10-26T01:45:56.253Z,5.22
2022-10-26T01:56:19.527Z,5.93
2022-10-26T02:01:46.632Z,6.70
2022-10-26T02:07:03.852Z,7.38
2022-10-26T02:12:21.523Z,7.75
2022-10-26T02:17:35.115Z,9.05
2022-10-26T02:22:45.840Z,8.57
2022-10-26T02:27:56.908Z,9.40
2022-10-26T02:33:06.980Z,8.95
2022-10-26T02:38:18.227Z,10.43
2022-10-26T02:43:25.090Z,8.98
2022-10-26T02:48:33.262Z,9.93
2022-10-26T02:53:47.965Z,9.63
2022-10-26T02:58:59.703Z,10.82
2022-10-26T03:04:07.481Z,9.02
2022-10-26T03:09:13.309Z,9.00
2022-10-26T03:14:19.537Z,9.50
2022-10-26T03:19:27.131Z,8.68
2022-10-26T03:24:33.158Z,7.72
2022-10-26T03:29:40.220Z,8.73
2022-10-26T03:34:47.738Z,8.60
2022-10-26T03:39:53.750Z,8.45
2022-10-26T03:44:59.621Z,7.68
2022-10-26T03:50:08.098Z,8.52
2022-10-26T03:55:14.032Z,8.50
2022-10-26T04:00:20.705Z,7.90
2022-10-26T04:05:30.445Z,8.00
2022-10-26T04:10:36.687Z,8.70
2022-10-26T04:15:43.576Z,7.80
2022-10-26T04:20:50.961Z,8.05
2022-10-26T04:25:56.984Z,7.18
2022-10-26T04:31:02.913Z,7.85
2022-10-26T04:36:11.288Z,7.25
2022-10-26T04:41:17.835Z,7.40
2022-10-26T04:46:23.761Z,6.97
2022-10-26T04:51:31.076Z,8.27
2022-10-26T04:56:37.157Z,7.13
2022-10-26T05:01:43.146Z,7.43
2022-10-26T05:06:50.811Z,7.97
2022-10-26T05:11:56.676Z,6.90
2022-10-26T05:17:02.486Z,8.05
2022-10-26T05:22:11.837Z,5.60
2022-10-26T05:27:18.879Z,6.45
2022-10-26T05:32:25.744Z,6.20
2022-10-26T05:37:33.161Z,6.25
2022-10-26T05:42:40.342Z,8.00
2022-10-26T05:47:47.770Z,7.85
2022-10-26T05:52:56.154Z,8.60
2022-10-26T05:58:02.954Z,7.33
2022-10-26T06:08:43.894Z,7.18
2022-10-26T06:13:51.064Z,6.88
2022-10-26T06:19:14.806Z,7.68
2022-10-26T06:24:30.833Z,6.38
2022-10-26T06:29:50.331Z,6.30
2022-10-26T06:35:13.669Z,6.95
2022-10-26T06:40:22.684Z,6.18
2022-10-26T06:50:42.757Z,5.97
2022-10-26T06:55:52.526Z,6.68
2022-10-26T07:00:59.621Z,6.10
2022-10-26T07:06:06.443Z,6.32
2022-10-26T07:11:13.830Z,6.20
2022-10-26T07:16:21.407Z,7.57
2022-10-26T07:21:27.652Z,8.32
2022-10-26T07:26:34.893Z,9.07
2022-10-26T07:31:40.820Z,8.70
2022-10-26T07:36:47.061Z,8.50
2022-10-26T07:41:56.222Z,7.88
2022-10-26T07:47:02.293Z,8.10
2022-10-26T07:52:08.768Z,7.43
2022-10-26T07:57:18.371Z,6.85
2022-10-26T08:02:25.576Z,6.25
2022-10-26T08:07:31.832Z,6.47
2022-10-26T08:12:40.417Z,7.80
2022-10-26T08:17:50.194Z,7.60
2022-10-26T08:23:01.404Z,7.15
2022-10-26T08:28:08.881Z,6.40
2022-10-26T08:33:14.753Z,7.30
2022-10-26T08:38:20.725Z,7.68
2022-10-26T08:43:35.695Z,8.02
2022-10-26T08:48:46.074Z,7.78
2022-10-26T08:53:58.763Z,6.63
2022-10-26T08:59:19.485Z,8.20
2022-10-26T09:04:30.192Z,7.38
2022-10-26T09:09:47.706Z,7.78
2022-10-26T09:15:12.732Z,6.75
2022-10-26T09:20:56.084Z,6.95
2022-10-26T09:26:04.454Z,7.25
2022-10-26T09:31:18.651Z,6.25
2022-10-26T09:36:25.497Z,7.00
2022-10-26T09:41:43.704Z,7.88
2022-10-26T09:47:00.104Z,8.73
2022-10-26T09:52:06.370Z,6.78
2022-10-26T09:57:17.311Z,6.65
2022-10-26T10:02:44.231Z,7.50
2022-10-26T10:07:50.861Z,6.90
2022-10-26T10:12:56.904Z,6.03
2022-10-26T10:18:04.349Z,6.35
2022-10-26T10:23:32.121Z,6.35
2022-10-26T10:28:38.410Z,7.35
2022-10-26T10:33:47.069Z,6.75
2022-10-26T10:38:55.052Z,6.20
2022-10-26T10:44:09.351Z,6.13
2022-10-26T10:49:27.799Z,5.10
2022-10-26T10:54:37.430Z,5.20
2022-10-26T11:00:01.340Z,5.90
2022-10-26T11:05:38.573Z,6.13
2022-10-26T11:10:51.866Z,6.50
2022-10-26T11:16:04.553Z,6.13
2022-10-26T11:21:27.157Z,6.10
2022-10-26T11:26:42.349Z,5.75
2022-10-26T11:32:04.126Z,5.17
2022-10-26T11:42:32.276Z,4.82
2022-10-26T11:47:45.935Z,6.47
2022-10-26T11:53:00.065Z,6.80
2022-10-26T11:58:06.919Z,7.13
2022-10-26T12:03:18.452Z,7.25
2022-10-26T12:08:33.767Z,6.78
2022-10-26T12:13:49.932Z,6.90
2022-10-26T12:19:02.842Z,6.97
2022-10-26T12:24:30.326Z,7.10
2022-10-26T12:30:10.993Z,6.57
2022-10-26T12:35:40.474Z,7.78
2022-10-26T12:41:28.034Z,6.75
2022-10-26T12:46:43.559Z,6.38
2022-10-26T12:51:51.209Z,6.18
2022-10-26T12:57:21.427Z,6.10
2022-10-26T13:02:50.674Z,6.57
2022-10-26T13:08:05.198Z,7.13
2022-10-26T13:13:25.617Z,6.57
2022-10-26T13:18:45.004Z,6.00
2022-10-26T13:24:10.196Z,6.90
2022-10-26T13:29:34.430Z,5.47
2022-10-26T13:34:44.301Z,5.50
2022-10-26T13:39:56.189Z,5.03
2022-10-26T13:45:10.435Z,4.82
2022-10-26T13:50:33.342Z,5.20
2022-10-26T13:56:07.393Z,5.13
2022-10-26T14:01:30.608Z,5.25
2022-10-26T14:06:43.190Z,5.38
2022-10-26T14:11:53.847Z,5.60
2022-10-26T14:17:02.707Z,5.32
2022-10-26T14:27:22.790Z,5.00
2022-10-26T14:32:33.872Z,4.30
2022-10-26T14:37:53.465Z,6.00
2022-10-26T14:43:05.263Z,5.57
2022-10-26T14:48:30.758Z,4.60
2022-10-26T14:53:41.694Z,4.22
2022-10-26T14:58:47.942Z,3.72
2022-10-26T15:04:01.938Z,3.92
2022-10-26T15:09:35.306Z,4.53
2022-10-26T15:14:45.356Z,3.83
2022-10-26T15:19:55.419Z,3.60
2022-10-26T15:25:07.262Z,12.52
2022-10-26T15:30:27.625Z,7.45
2022-10-26T15:35:35.494Z,4.05
2022-10-26T15:40:47.821Z,5.03
2022-10-26T15:45:55.461Z,4.50
2022-10-26T15:51:03.652Z,4.60
2022-10-26T15:56:17.401Z,4.30
2022-10-26T16:01:26.591Z,5.03
2022-10-26T16:06:37.263Z,5.65
2022-10-26T16:11:45.028Z,5.35
2022-10-26T16:16:51.572Z,6.32
2022-10-26T16:21:59.910Z,4.90
2022-10-26T16:27:10.788Z,4.38
2022-10-26T16:32:17.382Z,3.88
2022-10-26T16:37:25.979Z,4.47
2022-10-26T16:42:33.951Z,3.28
2022-10-26T16:47:40.775Z,3.97
2022-10-26T16:52:48.762Z,7.03
2022-10-26T16:57:55.995Z,4.80
2022-10-26T17:03:03.247Z,5.30
2022-10-26T17:08:12.424Z,4.38
2022-10-26T17:13:23.010Z,8.18
2022-10-26T17:18:31.004Z,10.25
2022-10-26T17:23:40.986Z,10.88
2022-10-26T17:28:56.189Z,11.15
2022-10-26T17:34:06.303Z,11.20
2022-10-26T17:39:16.916Z,9.93
2022-10-26T17:44:27.343Z,10.05
2022-10-26T17:49:41.313Z,8.63
2022-10-26T17:54:49.667Z,5.60
2022-10-26T17:59:57.264Z,5.50
2022-10-26T18:05:06.749Z,5.40
2022-10-26T18:10:37.046Z,5.30
2022-10-26T18:15:45.120Z,4.10
2022-10-26T18:21:08.630Z,6.35
2022-10-26T18:26:22.659Z,6.32
2022-10-26T18:31:33.264Z,6.63
2022-10-26T18:36:45.583Z,9.73
2022-10-26T18:41:54.509Z,12.95
2022-10-26T18:47:06.048Z,23.17
2022-10-26T18:52:14.680Z,37.77
2022-10-26T18:57:31.024Z,44.47
2022-10-26T19:08:12.003Z,53.47
2022-10-26T19:13:20.993Z,63.88
2022-10-26T19:18:30.046Z,47.90
2022-10-26T19:23:40.229Z,52.15
2022-10-26T19:28:49.465Z,54.95
2022-10-26T19:34:07.784Z,56.25
2022-10-26T19:39:18.325Z,58.33
2022-10-26T19:44:28.516Z,55.47
2022-10-26T19:49:39.679Z,50.13
2022-10-26T19:54:47.151Z,51.08
2022-10-26T19:59:55.871Z,45.22
2022-10-26T20:05:04.348Z,45.58
2022-10-26T20:10:14.207Z,47.38
2022-10-26T20:15:22.307Z,51.50
2022-10-26T20:20:33.761Z,52.03
2022-10-26T20:25:51.411Z,46.40
2022-10-26T20:31:02.223Z,42.70
2022-10-26T20:36:10.768Z,44.35
2022-10-26T20:41:23.019Z,37.20
2022-10-26T20:46:36.680Z,41.65
2022-10-26T20:52:15.740Z,42.72
2022-10-26T20:57:29.779Z,43.05
2022-10-26T21:02:38.224Z,34.70
2022-10-26T21:07:44.700Z,35.50
2022-10-26T21:12:55.263Z,34.10
2022-10-26T21:18:03.204Z,35.95
2022-10-26T21:23:09.844Z,49.13
2022-10-26T21:28:16.734Z,41.13
2022-10-26T21:33:32.281Z,49.28
2022-10-26T21:38:43.039Z,47.65
2022-10-26T21:44:03.381Z,40.92
2022-10-26T21:49:28.378Z,41.78
2022-10-26T21:54:39.270Z,39.28
2022-10-26T21:59:45.835Z,36.97
2022-10-26T22:04:53.437Z,38.28
2022-10-26T22:10:11.367Z,37.83
2022-10-26T22:15:25.665Z,40.85
2022-10-26T22:20:34.437Z,43.13
2022-10-26T22:25:40.726Z,49.47
2022-10-26T22:30:46.715Z,46.95
2022-10-26T22:35:54.175Z,45.42
2022-10-26T22:41:02.242Z,44.90
2022-10-26T22:46:11.537Z,45.20
2022-10-26T22:51:21.071Z,45.38
2022-10-26T22:56:28.352Z,42.95
2022-10-26T23:01:38.735Z,43.28
2022-10-26T23:06:46.122Z,37.88
2022-10-26T23:11:52.111Z,41.13
2022-10-26T23:16:57.960Z,43.20
2022-10-26T23:22:05.599Z,38.83
2022-10-26T23:27:11.283Z,40.95
2022-10-26T23:32:18.623Z,42.22
2022-10-26T23:37:25.865Z,39.55
2022-10-26T23:42:31.570Z,39.75
2022-10-26T23:47:37.325Z,39.85
2022-10-26T23:52:49.397Z,39.13
2022-10-26T23:57:55.253Z,36.45
